sensor_id;sensor_type;location;lat;lon;timestamp;pressure;altitude;pressure_sealevel;temperature;humidity
70555;BME280;58104;52.744;15.242;2023-02-28T00:02:10;102416.51;;;18.04;40.43
70555;BME280;58104;52.744;15.242;2023-02-28T00:04:35;102415.46;;;18.02;40.54
70555;BME280;58104;52.744;15.242;2023-02-28T00:07:00;102414.20;;;17.97;40.71
70555;BME280;58104;52.744;15.242;2023-02-28T00:09:26;102418.12;;;18.00;40.79
70555;BME280;58104;52.744;15.242;2023-02-28T00:11:51;102417.23;;;17.97;40.94
70555;BME280;58104;52.744;15.242;2023-02-28T00:14:17;102418.66;;;18.01;41.01
70555;BME280;58104;52.744;15.242;2023-02-28T00:16:42;102420.11;;;17.99;41.15
70555;BME280;58104;52.744;15.242;2023-02-28T00:19:08;102416.71;;;17.96;41.29
70555;BME280;58104;52.744;15.242;2023-02-28T00:21:33;102418.43;;;18.02;41.43
70555;BME280;58104;52.744;15.242;2023-02-28T00:23:58;102413.26;;;17.95;41.49
70555;BME280;58104;52.744;15.242;2023-02-28T00:26:24;102416.64;;;17.99;41.65
70555;BME280;58104;52.744;15.242;2023-02-28T00:28:51;102418.20;;;17.96;41.61
70555;BME280;58104;52.744;15.242;2023-02-28T00:31:15;102419.74;;;17.95;41.71
70555;BME280;58104;52.744;15.242;2023-02-28T00:33:40;102421.11;;;17.87;41.88
70555;BME280;58104;52.744;15.242;2023-02-28T00:36:07;102421.91;;;17.97;41.91
70555;BME280;58104;52.744;15.242;2023-02-28T00:38:31;102423.62;;;18.04;42.05
70555;BME280;58104;52.744;15.242;2023-02-28T00:40:56;102425.08;;;18.02;42.30
70555;BME280;58104;52.744;15.242;2023-02-28T00:43:22;102426.47;;;17.91;42.77
70555;BME280;58104;52.744;15.242;2023-02-28T00:45:47;102424.26;;;17.99;42.76
70555;BME280;58104;52.744;15.242;2023-02-28T00:48:13;102421.07;;;17.90;42.91
70555;BME280;58104;52.744;15.242;2023-02-28T00:50:38;102421.46;;;17.89;43.04
70555;BME280;58104;52.744;15.242;2023-02-28T00:53:04;102421.05;;;17.84;43.42
70555;BME280;58104;52.744;15.242;2023-02-28T00:55:29;102417.76;;;17.82;43.44
70555;BME280;58104;52.744;15.242;2023-02-28T00:57:54;102419.12;;;17.84;43.53
70555;BME280;58104;52.744;15.242;2023-02-28T01:00:20;102419.89;;;17.88;43.70
70555;BME280;58104;52.744;15.242;2023-02-28T01:02:45;102418.36;;;17.92;43.76
70555;BME280;58104;52.744;15.242;2023-02-28T01:05:11;102418.91;;;17.82;43.95
70555;BME280;58104;52.744;15.242;2023-02-28T01:07:37;102415.22;;;17.82;44.08
70555;BME280;58104;52.744;15.242;2023-02-28T01:10:02;102413.93;;;17.83;44.12
70555;BME280;58104;52.744;15.242;2023-02-28T01:12:27;102414.31;;;17.82;44.26
70555;BME280;58104;52.744;15.242;2023-02-28T01:14:52;102413.90;;;17.82;44.49
70555;BME280;58104;52.744;15.242;2023-02-28T01:17:18;102409.58;;;17.80;44.73
70555;BME280;58104;52.744;15.242;2023-02-28T01:19:43;102411.25;;;17.80;44.77
70555;BME280;58104;52.744;15.242;2023-02-28T01:22:09;102407.82;;;17.77;44.98
70555;BME280;58104;52.744;15.242;2023-02-28T01:24:34;102409.41;;;17.78;45.16
70555;BME280;58104;52.744;15.242;2023-02-28T01:27:00;102407.08;;;17.75;45.24
70555;BME280;58104;52.744;15.242;2023-02-28T01:29:25;102405.66;;;17.75;45.43
70555;BME280;58104;52.744;15.242;2023-02-28T01:31:50;102408.37;;;17.75;45.45
70555;BME280;58104;52.744;15.242;2023-02-28T01:34:16;102407.89;;;17.83;45.48
70555;BME280;58104;52.744;15.242;2023-02-28T01:36:41;102411.87;;;17.72;46.03
70555;BME280;58104;52.744;15.242;2023-02-28T01:39:07;102409.23;;;17.79;46.44
70555;BME280;58104;52.744;15.242;2023-02-28T01:41:33;102409.04;;;17.71;46.54
70555;BME280;58104;52.744;15.242;2023-02-28T01:44:00;102407.61;;;17.72;46.68
70555;BME280;58104;52.744;15.242;2023-02-28T01:46:23;102404.65;;;17.85;46.67
70555;BME280;58104;52.744;15.242;2023-02-28T01:48:53;102406.55;;;17.74;46.85
70555;BME280;58104;52.744;15.242;2023-02-28T01:51:16;102405.22;;;17.73;46.83
70555;BME280;58104;52.744;15.242;2023-02-28T01:53:44;102403.11;;;17.77;46.88
70555;BME280;58104;52.744;15.242;2023-02-28T01:56:06;102404.45;;;17.83;47.15
70555;BME280;58104;52.744;15.242;2023-02-28T01:58:30;102405.88;;;17.84;47.05
70555;BME280;58104;52.744;15.242;2023-02-28T02:00:55;102409.93;;;17.69;47.18
70555;BME280;58104;52.744;15.242;2023-02-28T02:03:21;102411.53;;;17.67;47.18
70555;BME280;58104;52.744;15.242;2023-02-28T02:05:47;102408.90;;;17.74;47.37
70555;BME280;58104;52.744;15.242;2023-02-28T02:08:15;102405.32;;;17.70;47.38
70555;BME280;58104;52.744;15.242;2023-02-28T02:10:41;102405.58;;;17.65;47.31
70555;BME280;58104;52.744;15.242;2023-02-28T02:13:13;102403.96;;;17.76;47.41
70555;BME280;58104;52.744;15.242;2023-02-28T02:15:31;102401.16;;;17.63;47.52
70555;BME280;58104;52.744;15.242;2023-02-28T02:17:57;102395.50;;;17.72;47.34
70555;BME280;58104;52.744;15.242;2023-02-28T02:22:55;102397.01;;;17.69;47.17
70555;BME280;58104;52.744;15.242;2023-02-28T02:25:17;102398.91;;;17.80;47.41
70555;BME280;58104;52.744;15.242;2023-02-28T02:34:57;102398.60;;;17.69;47.62
70555;BME280;58104;52.744;15.242;2023-02-28T02:37:27;102400.34;;;17.69;47.52
70555;BME280;58104;52.744;15.242;2023-02-28T02:39:48;102399.00;;;17.73;47.77
70555;BME280;58104;52.744;15.242;2023-02-28T02:42:14;102400.21;;;17.76;47.77
70555;BME280;58104;52.744;15.242;2023-02-28T02:44:38;102400.49;;;17.74;47.89
70555;BME280;58104;52.744;15.242;2023-02-28T02:47:02;102400.85;;;17.74;47.96
70555;BME280;58104;52.744;15.242;2023-02-28T02:49:27;102400.83;;;17.71;48.10
70555;BME280;58104;52.744;15.242;2023-02-28T02:51:49;102399.69;;;17.59;48.29
70555;BME280;58104;52.744;15.242;2023-02-28T02:54:18;102397.05;;;17.61;48.45
70555;BME280;58104;52.744;15.242;2023-02-28T02:56:42;102397.73;;;17.76;48.83
70555;BME280;58104;52.744;15.242;2023-02-28T02:59:09;102398.26;;;17.64;48.96
70555;BME280;58104;52.744;15.242;2023-02-28T03:01:32;102400.16;;;17.64;48.96
70555;BME280;58104;52.744;15.242;2023-02-28T03:03:58;102400.61;;;17.66;49.39
70555;BME280;58104;52.744;15.242;2023-02-28T03:06:22;102401.12;;;17.68;49.25
70555;BME280;58104;52.744;15.242;2023-02-28T03:08:47;102399.98;;;17.62;49.40
70555;BME280;58104;52.744;15.242;2023-02-28T03:11:14;102402.16;;;17.60;49.68
70555;BME280;58104;52.744;15.242;2023-02-28T03:13:51;102405.41;;;17.58;49.64
70555;BME280;58104;52.744;15.242;2023-02-28T03:16:15;102408.82;;;17.64;50.00
70555;BME280;58104;52.744;15.242;2023-02-28T03:18:35;102409.07;;;17.68;49.94
70555;BME280;58104;52.744;15.242;2023-02-28T03:21:01;102413.83;;;17.66;50.12
70555;BME280;58104;52.744;15.242;2023-02-28T03:23:24;102414.67;;;17.65;50.14
70555;BME280;58104;52.744;15.242;2023-02-28T03:25:54;102411.92;;;17.63;50.28
70555;BME280;58104;52.744;15.242;2023-02-28T03:28:15;102409.40;;;17.70;50.52
70555;BME280;58104;52.744;15.242;2023-02-28T03:30:42;102411.99;;;17.65;50.18
70555;BME280;58104;52.744;15.242;2023-02-28T03:33:06;102415.11;;;17.63;50.15
70555;BME280;58104;52.744;15.242;2023-02-28T03:35:32;102413.72;;;17.64;50.24
70555;BME280;58104;52.744;15.242;2023-02-28T03:37:59;102414.91;;;17.70;50.09
70555;BME280;58104;52.744;15.242;2023-02-28T03:40:21;102415.16;;;17.65;50.59
70555;BME280;58104;52.744;15.242;2023-02-28T03:42:47;102413.97;;;17.73;50.82
70555;BME280;58104;52.744;15.242;2023-02-28T03:45:13;102411.41;;;17.69;50.83
70555;BME280;58104;52.744;15.242;2023-02-28T03:47:38;102415.03;;;17.67;50.67
70555;BME280;58104;52.744;15.242;2023-02-28T03:50:02;102417.43;;;17.64;50.86
70555;BME280;58104;52.744;15.242;2023-02-28T03:52:29;102414.73;;;17.61;50.92
70555;BME280;58104;52.744;15.242;2023-02-28T03:54:53;102413.25;;;17.65;50.83
70555;BME280;58104;52.744;15.242;2023-02-28T03:57:22;102413.60;;;17.65;50.80
70555;BME280;58104;52.744;15.242;2023-02-28T03:59:43;102416.34;;;17.59;50.84
70555;BME280;58104;52.744;15.242;2023-02-28T04:02:07;102413.94;;;17.61;50.78
70555;BME280;58104;52.744;15.242;2023-02-28T04:04:33;102415.53;;;17.64;50.63
70555;BME280;58104;52.744;15.242;2023-02-28T04:07:03;102416.45;;;17.67;50.72
70555;BME280;58104;52.744;15.242;2023-02-28T04:09:23;102414.43;;;17.60;50.90
70555;BME280;58104;52.744;15.242;2023-02-28T04:11:51;102415.29;;;17.61;50.73
70555;BME280;58104;52.744;15.242;2023-02-28T04:14:14;102414.97;;;17.68;50.77
70555;BME280;58104;52.744;15.242;2023-02-28T04:16:41;102415.18;;;17.68;50.63
70555;BME280;58104;52.744;15.242;2023-02-28T04:19:07;102414.86;;;17.67;50.75
70555;BME280;58104;52.744;15.242;2023-02-28T04:21:32;102417.27;;;17.71;50.54
70555;BME280;58104;52.744;15.242;2023-02-28T04:23:56;102423.75;;;17.65;50.57
70555;BME280;58104;52.744;15.242;2023-02-28T04:26:21;102426.04;;;17.59;50.69
70555;BME280;58104;52.744;15.242;2023-02-28T04:28:47;102425.12;;;17.65;50.71
70555;BME280;58104;52.744;15.242;2023-02-28T04:31:12;102425.36;;;17.61;50.69
70555;BME280;58104;52.744;15.242;2023-02-28T04:33:37;102424.68;;;17.61;50.52
70555;BME280;58104;52.744;15.242;2023-02-28T04:36:05;102430.09;;;17.58;50.90
70555;BME280;58104;52.744;15.242;2023-02-28T04:38:29;102432.27;;;17.61;50.77
70555;BME280;58104;52.744;15.242;2023-02-28T04:40:54;102434.74;;;17.65;50.84
70555;BME280;58104;52.744;15.242;2023-02-28T04:43:19;102437.53;;;17.56;50.83
70555;BME280;58104;52.744;15.242;2023-02-28T04:45:44;102438.67;;;17.70;50.73
70555;BME280;58104;52.744;15.242;2023-02-28T04:48:10;102439.16;;;17.61;50.94
70555;BME280;58104;52.744;15.242;2023-02-28T04:50:35;102439.11;;;17.61;50.81
70555;BME280;58104;52.744;15.242;2023-02-28T04:53:00;102441.91;;;17.60;50.95
70555;BME280;58104;52.744;15.242;2023-02-28T04:55:26;102443.78;;;17.69;50.81
70555;BME280;58104;52.744;15.242;2023-02-28T04:57:51;102447.33;;;17.57;50.77
70555;BME280;58104;52.744;15.242;2023-02-28T05:00:17;102450.03;;;17.58;50.77
70555;BME280;58104;52.744;15.242;2023-02-28T05:02:42;102446.24;;;17.58;51.17
70555;BME280;58104;52.744;15.242;2023-02-28T05:05:08;102447.02;;;17.59;51.17
70555;BME280;58104;52.744;15.242;2023-02-28T05:07:33;102445.53;;;17.63;51.13
70555;BME280;58104;52.744;15.242;2023-02-28T05:09:59;102445.38;;;17.64;51.28
70555;BME280;58104;52.744;15.242;2023-02-28T05:12:24;102445.34;;;17.62;51.33
70555;BME280;58104;52.744;15.242;2023-02-28T05:14:49;102448.96;;;17.61;51.50
70555;BME280;58104;52.744;15.242;2023-02-28T05:17:15;102451.77;;;17.65;51.59
70555;BME280;58104;52.744;15.242;2023-02-28T05:19:40;102452.55;;;17.61;51.64
70555;BME280;58104;52.744;15.242;2023-02-28T05:22:13;102454.44;;;17.57;51.57
70555;BME280;58104;52.744;15.242;2023-02-28T05:24:31;102456.24;;;17.54;51.73
70555;BME280;58104;52.744;15.242;2023-02-28T05:26:56;102459.70;;;17.66;51.74
70555;BME280;58104;52.744;15.242;2023-02-28T05:29:22;102459.25;;;17.60;51.63
70555;BME280;58104;52.744;15.242;2023-02-28T05:31:47;102462.69;;;17.63;51.89
70555;BME280;58104;52.744;15.242;2023-02-28T05:34:13;102466.12;;;17.57;51.96
70555;BME280;58104;52.744;15.242;2023-02-28T05:36:39;102468.38;;;17.62;52.15
70555;BME280;58104;52.744;15.242;2023-02-28T05:39:05;102471.80;;;17.59;51.92
70555;BME280;58104;52.744;15.242;2023-02-28T05:41:29;102472.24;;;17.62;52.28
70555;BME280;58104;52.744;15.242;2023-02-28T05:43:54;102471.90;;;17.58;52.06
70555;BME280;58104;52.744;15.242;2023-02-28T05:46:20;102471.72;;;17.62;52.11
70555;BME280;58104;52.744;15.242;2023-02-28T05:48:47;102473.88;;;17.65;52.11
70555;BME280;58104;52.744;15.242;2023-02-28T05:51:11;102473.28;;;17.48;52.19
70555;BME280;58104;52.744;15.242;2023-02-28T05:53:36;102475.19;;;17.63;52.20
70555;BME280;58104;52.744;15.242;2023-02-28T05:56:02;102477.69;;;17.61;51.94
70555;BME280;58104;52.744;15.242;2023-02-28T05:58:28;102484.43;;;17.52;52.27
70555;BME280;58104;52.744;15.242;2023-02-28T06:00:52;102483.32;;;17.51;52.26
70555;BME280;58104;52.744;15.242;2023-02-28T06:03:18;102483.91;;;17.58;52.37
70555;BME280;58104;52.744;15.242;2023-02-28T06:05:43;102484.96;;;17.72;54.13
70555;BME280;58104;52.744;15.242;2023-02-28T06:08:09;102484.04;;;17.75;55.14
70555;BME280;58104;52.744;15.242;2023-02-28T06:10:34;102486.04;;;17.78;54.96
70555;BME280;58104;52.744;15.242;2023-02-28T06:13:00;102482.24;;;17.72;53.54
70555;BME280;58104;52.744;15.242;2023-02-28T06:15:25;102485.84;;;17.63;53.20
70555;BME280;58104;52.744;15.242;2023-02-28T06:17:50;102484.36;;;17.73;52.76
70555;BME280;58104;52.744;15.242;2023-02-28T06:20:16;102491.10;;;17.75;52.80
70555;BME280;58104;52.744;15.242;2023-02-28T06:22:41;102494.35;;;17.76;52.95
70555;BME280;58104;52.744;15.242;2023-02-28T06:25:07;102492.76;;;17.74;53.31
70555;BME280;58104;52.744;15.242;2023-02-28T06:27:32;102494.03;;;17.82;52.84
70555;BME280;58104;52.744;15.242;2023-02-28T06:29:57;102496.21;;;17.75;52.85
70555;BME280;58104;52.744;15.242;2023-02-28T06:32:22;102496.13;;;17.76;51.74
70555;BME280;58104;52.744;15.242;2023-02-28T06:34:47;102500.15;;;17.85;50.32
70555;BME280;58104;52.744;15.242;2023-02-28T06:37:13;102500.95;;;17.79;49.81
70555;BME280;58104;52.744;15.242;2023-02-28T06:39:38;102504.21;;;17.85;49.37
70555;BME280;58104;52.744;15.242;2023-02-28T06:42:04;102506.41;;;17.76;48.23
70555;BME280;58104;52.744;15.242;2023-02-28T06:44:29;102503.45;;;17.75;47.26
70555;BME280;58104;52.744;15.242;2023-02-28T06:46:54;102503.33;;;17.27;42.01
70555;BME280;58104;52.744;15.242;2023-02-28T06:49:19;102501.27;;;16.95;41.21
70555;BME280;58104;52.744;15.242;2023-02-28T06:51:45;102502.33;;;16.72;44.59
70555;BME280;58104;52.744;15.242;2023-02-28T06:54:12;102499.98;;;17.05;44.56
70555;BME280;58104;52.744;15.242;2023-02-28T06:56:37;102503.27;;;17.29;44.49
70555;BME280;58104;52.744;15.242;2023-02-28T06:59:03;102503.58;;;17.51;44.06
70555;BME280;58104;52.744;15.242;2023-02-28T07:01:27;102509.70;;;17.70;44.21
70555;BME280;58104;52.744;15.242;2023-02-28T07:03:53;102509.15;;;17.82;44.21
70555;BME280;58104;52.744;15.242;2023-02-28T07:06:18;102505.55;;;17.85;44.18
70555;BME280;58104;52.744;15.242;2023-02-28T07:08:45;102508.92;;;17.77;39.57
70555;BME280;58104;52.744;15.242;2023-02-28T07:11:10;102508.47;;;17.77;38.77
70555;BME280;58104;52.744;15.242;2023-02-28T07:13:36;102507.43;;;17.82;37.29
70555;BME280;58104;52.744;15.242;2023-02-28T07:16:03;102510.18;;;17.54;35.67
70555;BME280;58104;52.744;15.242;2023-02-28T07:18:27;102509.07;;;17.30;35.53
70555;BME280;58104;52.744;15.242;2023-02-28T07:20:51;102508.98;;;17.34;35.40
70555;BME280;58104;52.744;15.242;2023-02-28T07:23:17;102515.24;;;17.66;34.50
70555;BME280;58104;52.744;15.242;2023-02-28T07:25:42;102515.52;;;17.48;33.08
70555;BME280;58104;52.744;15.242;2023-02-28T07:28:08;102516.11;;;17.67;33.62
70555;BME280;58104;52.744;15.242;2023-02-28T07:30:33;102512.31;;;17.57;32.40
70555;BME280;58104;52.744;15.242;2023-02-28T07:32:58;102513.31;;;17.41;33.22
70555;BME280;58104;52.744;15.242;2023-02-28T07:35:24;102513.30;;;17.37;34.29
70555;BME280;58104;52.744;15.242;2023-02-28T07:37:49;102517.27;;;17.25;34.36
70555;BME280;58104;52.744;15.242;2023-02-28T07:40:15;102518.12;;;17.18;34.87
70555;BME280;58104;52.744;15.242;2023-02-28T07:42:41;102522.56;;;17.24;35.87
70555;BME280;58104;52.744;15.242;2023-02-28T07:45:08;102527.79;;;17.71;36.54
70555;BME280;58104;52.744;15.242;2023-02-28T07:47:32;102530.99;;;18.11;36.76
70555;BME280;58104;52.744;15.242;2023-02-28T07:49:57;102524.02;;;18.13;37.10
70555;BME280;58104;52.744;15.242;2023-02-28T07:52:23;102524.17;;;18.28;37.15
70555;BME280;58104;52.744;15.242;2023-02-28T07:54:48;102525.57;;;18.34;37.30
70555;BME280;58104;52.744;15.242;2023-02-28T07:57:13;102530.53;;;18.40;37.50
70555;BME280;58104;52.744;15.242;2023-02-28T07:59:38;102532.23;;;18.53;37.59
70555;BME280;58104;52.744;15.242;2023-02-28T08:02:04;102529.14;;;18.52;37.65
70555;BME280;58104;52.744;15.242;2023-02-28T08:04:31;102530.32;;;18.56;37.78
70555;BME280;58104;52.744;15.242;2023-02-28T08:06:55;102526.44;;;18.55;37.86
70555;BME280;58104;52.744;15.242;2023-02-28T08:09:20;102528.48;;;18.73;37.91
70555;BME280;58104;52.744;15.242;2023-02-28T08:11:45;102524.35;;;18.70;37.98
70555;BME280;58104;52.744;15.242;2023-02-28T08:14:11;102520.95;;;18.72;38.07
70555;BME280;58104;52.744;15.242;2023-02-28T08:16:36;102519.82;;;18.77;38.15
70555;BME280;58104;52.744;15.242;2023-02-28T08:19:02;102522.53;;;18.78;38.14
70555;BME280;58104;52.744;15.242;2023-02-28T08:21:27;102523.12;;;18.85;38.14
70555;BME280;58104;52.744;15.242;2023-02-28T08:23:53;102525.92;;;18.89;38.25
70555;BME280;58104;52.744;15.242;2023-02-28T08:26:19;102528.80;;;18.90;38.31
70555;BME280;58104;52.744;15.242;2023-02-28T08:28:44;102529.69;;;18.95;38.52
70555;BME280;58104;52.744;15.242;2023-02-28T08:31:10;102531.09;;;18.95;39.08
70555;BME280;58104;52.744;15.242;2023-02-28T08:33:35;102529.06;;;19.79;36.88
70555;BME280;58104;52.744;15.242;2023-02-28T08:36:00;102532.97;;;20.18;36.34
70555;BME280;58104;52.744;15.242;2023-02-28T08:38:25;102532.66;;;20.46;37.12
70555;BME280;58104;52.744;15.242;2023-02-28T08:40:57;102529.45;;;20.52;36.72
70555;BME280;58104;52.744;15.242;2023-02-28T08:43:16;102528.58;;;20.80;36.52
70555;BME280;58104;52.744;15.242;2023-02-28T08:45:41;102533.41;;;20.94;36.52
70555;BME280;58104;52.744;15.242;2023-02-28T08:48:07;102529.90;;;20.98;36.86
70555;BME280;58104;52.744;15.242;2023-02-28T08:50:32;102529.84;;;21.13;36.26
70555;BME280;58104;52.744;15.242;2023-02-28T08:52:58;102526.78;;;21.25;36.43
70555;BME280;58104;52.744;15.242;2023-02-28T08:55:23;102530.72;;;21.23;36.50
70555;BME280;58104;52.744;15.242;2023-02-28T08:57:49;102530.64;;;21.26;36.43
70555;BME280;58104;52.744;15.242;2023-02-28T09:00:14;102531.33;;;21.36;36.68
70555;BME280;58104;52.744;15.242;2023-02-28T09:02:39;102533.49;;;21.29;36.78
70555;BME280;58104;52.744;15.242;2023-02-28T09:05:06;102539.37;;;21.23;37.36
70555;BME280;58104;52.744;15.242;2023-02-28T09:07:30;102534.48;;;21.39;37.09
70555;BME280;58104;52.744;15.242;2023-02-28T09:09:56;102534.72;;;21.38;37.13
70555;BME280;58104;52.744;15.242;2023-02-28T09:12:22;102536.24;;;21.36;37.20
70555;BME280;58104;52.744;15.242;2023-02-28T09:14:46;102538.09;;;21.41;37.50
70555;BME280;58104;52.744;15.242;2023-02-28T09:17:11;102540.54;;;21.49;37.56
70555;BME280;58104;52.744;15.242;2023-02-28T09:19:37;102540.59;;;21.51;37.41
70555;BME280;58104;52.744;15.242;2023-02-28T09:22:02;102537.88;;;21.48;37.56
70555;BME280;58104;52.744;15.242;2023-02-28T09:24:28;102531.88;;;21.55;37.72
70555;BME280;58104;52.744;15.242;2023-02-28T09:26:53;102533.24;;;21.49;37.79
70555;BME280;58104;52.744;15.242;2023-02-28T09:29:19;102532.85;;;21.48;37.88
70555;BME280;58104;52.744;15.242;2023-02-28T09:31:44;102537.06;;;21.54;37.84
70555;BME280;58104;52.744;15.242;2023-02-28T09:34:10;102539.32;;;21.42;37.94
70555;BME280;58104;52.744;15.242;2023-02-28T09:36:35;102538.05;;;21.46;37.98
70555;BME280;58104;52.744;15.242;2023-02-28T09:39:00;102538.47;;;21.38;38.08
70555;BME280;58104;52.744;15.242;2023-02-28T09:41:27;102538.56;;;21.45;37.97
70555;BME280;58104;52.744;15.242;2023-02-28T09:43:55;102540.04;;;21.44;37.95
70555;BME280;58104;52.744;15.242;2023-02-28T09:46:27;102536.08;;;21.49;37.97
70555;BME280;58104;52.744;15.242;2023-02-28T09:48:45;102532.08;;;21.49;37.98
70555;BME280;58104;52.744;15.242;2023-02-28T09:51:14;102528.38;;;21.58;38.00
70555;BME280;58104;52.744;15.242;2023-02-28T09:53:35;102527.96;;;21.58;38.13
70555;BME280;58104;52.744;15.242;2023-02-28T09:56:01;102525.62;;;21.66;37.99
70555;BME280;58104;52.744;15.242;2023-02-28T09:58:30;102519.09;;;21.46;37.82
70555;BME280;58104;52.744;15.242;2023-02-28T10:00:56;102516.69;;;21.65;33.45
70555;BME280;58104;52.744;15.242;2023-02-28T10:03:25;102519.06;;;21.94;33.46
70555;BME280;58104;52.744;15.242;2023-02-28T10:05:47;102520.83;;;21.95;31.72
70555;BME280;58104;52.744;15.242;2023-02-28T10:08:11;102524.04;;;21.93;32.05
70555;BME280;58104;52.744;15.242;2023-02-28T10:10:37;102530.13;;;21.93;31.53
70555;BME280;58104;52.744;15.242;2023-02-28T10:12:59;102528.98;;;21.89;30.87
70555;BME280;58104;52.744;15.242;2023-02-28T10:15:24;102530.39;;;21.98;31.35
70555;BME280;58104;52.744;15.242;2023-02-28T10:17:49;102533.08;;;21.88;31.92
70555;BME280;58104;52.744;15.242;2023-02-28T10:20:15;102534.58;;;21.46;30.16
70555;BME280;58104;52.744;15.242;2023-02-28T10:22:41;102538.10;;;21.10;28.97
70555;BME280;58104;52.744;15.242;2023-02-28T10:25:16;102537.46;;;20.74;27.42
70555;BME280;58104;52.744;15.242;2023-02-28T10:27:30;102535.23;;;20.59;27.50
70555;BME280;58104;52.744;15.242;2023-02-28T10:29:55;102536.61;;;20.60;27.20
70555;BME280;58104;52.744;15.242;2023-02-28T10:32:20;102540.12;;;20.21;25.51
70555;BME280;58104;52.744;15.242;2023-02-28T10:34:44;102541.66;;;20.19;27.97
70555;BME280;58104;52.744;15.242;2023-02-28T10:37:10;102542.42;;;19.95;28.62
70555;BME280;58104;52.744;15.242;2023-02-28T10:39:38;102541.70;;;20.74;30.04
70555;BME280;58104;52.744;15.242;2023-02-28T10:41:59;102548.71;;;21.03;30.53
70555;BME280;58104;52.744;15.242;2023-02-28T10:44:25;102552.68;;;21.19;31.13
70555;BME280;58104;52.744;15.242;2023-02-28T10:46:50;102546.96;;;21.33;31.39
70555;BME280;58104;52.744;15.242;2023-02-28T10:49:20;102542.75;;;21.52;31.56
70555;BME280;58104;52.744;15.242;2023-02-28T10:51:41;102541.80;;;21.52;31.84
70555;BME280;58104;52.744;15.242;2023-02-28T10:56:31;102534.98;;;21.85;32.04
70555;BME280;58104;52.744;15.242;2023-02-28T10:58:59;102534.29;;;21.91;32.15
70555;BME280;58104;52.744;15.242;2023-02-28T11:01:24;102528.22;;;21.91;32.26
70555;BME280;58104;52.744;15.242;2023-02-28T11:03:48;102525.13;;;21.92;32.49
70555;BME280;58104;52.744;15.242;2023-02-28T11:06:16;102521.03;;;21.66;31.47
70555;BME280;58104;52.744;15.242;2023-02-28T11:08:44;102519.39;;;21.53;29.14
70555;BME280;58104;52.744;15.242;2023-02-28T11:11:05;102516.58;;;21.44;28.29
70555;BME280;58104;52.744;15.242;2023-02-28T11:13:32;102513.43;;;21.04;29.12
70555;BME280;58104;52.744;15.242;2023-02-28T11:15:55;102517.52;;;21.34;29.02
70555;BME280;58104;52.744;15.242;2023-02-28T11:18:24;102515.17;;;21.32;25.80
70555;BME280;58104;52.744;15.242;2023-02-28T11:20:49;102508.22;;;21.20;26.73
70555;BME280;58104;52.744;15.242;2023-02-28T11:23:12;102503.30;;;21.23;27.12
70555;BME280;58104;52.744;15.242;2023-02-28T11:25:38;102501.61;;;21.40;25.89
70555;BME280;58104;52.744;15.242;2023-02-28T11:28:03;102498.61;;;20.97;27.24
70555;BME280;58104;52.744;15.242;2023-02-28T11:30:31;102497.00;;;21.37;28.53
70555;BME280;58104;52.744;15.242;2023-02-28T11:32:52;102494.32;;;21.67;28.76
70555;BME280;58104;52.744;15.242;2023-02-28T11:35:23;102489.52;;;21.71;29.17
70555;BME280;58104;52.744;15.242;2023-02-28T11:37:43;102487.59;;;21.79;29.75
70555;BME280;58104;52.744;15.242;2023-02-28T11:40:13;102484.09;;;21.88;29.89
70555;BME280;58104;52.744;15.242;2023-02-28T11:42:47;102481.87;;;21.94;30.08
70555;BME280;58104;52.744;15.242;2023-02-28T11:45:11;102480.46;;;21.97;30.31
70555;BME280;58104;52.744;15.242;2023-02-28T11:47:32;102474.33;;;21.99;30.37
70555;BME280;58104;52.744;15.242;2023-02-28T11:49:58;102478.38;;;22.00;30.33
70555;BME280;58104;52.744;15.242;2023-02-28T11:52:20;102478.86;;;22.05;30.51
70555;BME280;58104;52.744;15.242;2023-02-28T11:54:53;102471.00;;;22.06;30.59
70555;BME280;58104;52.744;15.242;2023-02-28T11:57:18;102470.44;;;22.10;30.58
70555;BME280;58104;52.744;15.242;2023-02-28T11:59:43;102469.92;;;22.09;30.68
70555;BME280;58104;52.744;15.242;2023-02-28T12:02:08;102467.86;;;22.10;30.61
70555;BME280;58104;52.744;15.242;2023-02-28T12:04:25;102460.76;;;22.00;30.84
70555;BME280;58104;52.744;15.242;2023-02-28T12:06:51;102458.07;;;22.03;30.86
70555;BME280;58104;52.744;15.242;2023-02-28T12:09:28;102452.39;;;22.07;30.81
70555;BME280;58104;52.744;15.242;2023-02-28T12:11:46;102453.22;;;21.84;31.24
70555;BME280;58104;52.744;15.242;2023-02-28T12:14:20;102451.86;;;21.76;29.00
70555;BME280;58104;52.744;15.242;2023-02-28T12:16:41;102447.98;;;21.59;28.04
70555;BME280;58104;52.744;15.242;2023-02-28T12:19:02;102443.32;;;21.45;25.93
70555;BME280;58104;52.744;15.242;2023-02-28T12:21:28;102442.31;;;21.33;27.89
70555;BME280;58104;52.744;15.242;2023-02-28T12:23:55;102437.50;;;21.69;28.20
70555;BME280;58104;52.744;15.242;2023-02-28T12:26:14;102435.25;;;21.73;26.14
70555;BME280;58104;52.744;15.242;2023-02-28T12:28:39;102433.49;;;21.95;25.85
70555;BME280;58104;52.744;15.242;2023-02-28T12:31:04;102432.35;;;22.06;25.22
70555;BME280;58104;52.744;15.242;2023-02-28T12:33:31;102429.62;;;22.01;27.85
70555;BME280;58104;52.744;15.242;2023-02-28T12:35:56;102426.71;;;21.87;27.05
70555;BME280;58104;52.744;15.242;2023-02-28T12:38:21;102424.22;;;22.22;27.50
70555;BME280;58104;52.744;15.242;2023-02-28T12:40:47;102423.84;;;22.30;27.88
70555;BME280;58104;52.744;15.242;2023-02-28T12:43:12;102420.15;;;22.28;28.48